Time;durP1;ratioP1;P1;durP2;ratioP2;P2;SDS_P1;SDS_P2;PMS_P1;PMS_P2;Temp;Humidity;BMP_temperature;BMP_pressure;BME280_temperature;BME280_humidity;BME280_pressure;Samples;Min_cycle;Max_cycle;Signal;HPM_P1;HPM_P2
2021/12/31 00:00:46;;;;;;;113.97;107.90;;;13.60;99.90;;;;;;5005696;28;20194;-81
2021/12/31 00:03:12;;;;;;;111.90;105.93;;;13.60;99.90;;;;;;5007818;28;20186;-81
2021/12/31 00:05:38;;;;;;;117.07;110.73;;;13.60;99.90;;;;;;4996229;28;20223;-81
2021/12/31 00:08:04;;;;;;;111.00;105.00;;;13.60;99.90;;;;;;5022363;28;20210;-82
2021/12/31 00:10:30;;;;;;;117.37;110.97;;;13.60;99.90;;;;;;4992827;28;20675;-82
2021/12/31 00:12:56;;;;;;;117.47;110.90;;;13.70;99.90;;;;;;4992762;28;20221;-80
2021/12/31 00:15:22;;;;;;;119.87;113.00;;;13.70;99.90;;;;;;5010341;28;20201;-81
2021/12/31 00:17:48;;;;;;;114.40;107.83;;;13.70;99.90;;;;;;4991187;28;20215;-81
2021/12/31 00:20:18;;;;;;;117.00;110.60;;;13.70;99.90;;;;;;5006588;28;20203;-82
2021/12/31 00:23:27;;;;;;;119.73;113.20;;;13.70;99.90;;;;;;5008517;28;20201;-82
2021/12/31 00:25:42;;;;;;;119.03;112.47;;;13.70;99.90;;;;;;5005137;28;20317;-82
2021/12/31 00:28:09;;;;;;;117.63;111.37;;;13.70;99.90;;;;;;5026400;28;20233;-81
2021/12/31 00:30:35;;;;;;;115.73;109.63;;;13.70;99.90;;;;;;5028917;28;20193;-81
2021/12/31 00:33:03;;;;;;;113.60;107.13;;;13.70;99.90;;;;;;5007870;28;20652;-81
2021/12/31 00:35:29;;;;;;;112.93;106.93;;;13.70;99.90;;;;;;5007633;28;20194;-80
2021/12/31 00:37:56;;;;;;;112.03;106.07;;;13.70;99.90;;;;;;5008033;28;20197;-82
2021/12/31 00:40:21;;;;;;;112.70;106.20;;;13.70;99.90;;;;;;5009731;28;20205;-82
2021/12/31 00:42:47;;;;;;;110.43;104.63;;;13.70;99.90;;;;;;5007155;28;20214;-82
2021/12/31 00:45:16;;;;;;;112.93;106.63;;;13.70;99.90;;;;;;5007430;28;20255;-80
2021/12/31 00:47:41;;;;;;;108.67;103.07;;;13.70;99.90;;;;;;4992512;28;20202;-80
2021/12/31 00:50:08;;;;;;;112.03;105.93;;;13.70;99.90;;;;;;5026258;28;20198;-81
2021/12/31 00:52:34;;;;;;;109.40;103.30;;;13.70;99.90;;;;;;5010600;28;20657;-82
2021/12/31 00:55:00;;;;;;;106.63;101.20;;;13.70;99.90;;;;;;5007927;28;20191;-80
2021/12/31 00:57:26;;;;;;;107.87;102.20;;;13.70;99.90;;;;;;4998215;28;20240;-82
2021/12/31 00:59:51;;;;;;;107.33;101.73;;;13.70;99.90;;;;;;5008663;28;20191;-82
2021/12/31 01:02:19;;;;;;;106.47;100.70;;;13.70;99.90;;;;;;5014205;28;20243;-81
2021/12/31 01:04:44;;;;;;;104.73;99.30;;;13.70;99.90;;;;;;4991315;28;20211;-81
2021/12/31 01:07:10;;;;;;;106.33;100.67;;;13.70;99.90;;;;;;4998608;28;20201;-80
2021/12/31 01:09:36;;;;;;;105.47;99.53;;;13.80;99.90;;;;;;4991077;28;20663;-80
2021/12/31 01:12:05;;;;;;;101.83;96.73;;;13.80;99.90;;;;;;5023523;28;20210;-82
2021/12/31 01:14:37;;;;;;;103.40;97.67;;;13.80;99.90;;;;;;4992561;28;20197;-81
2021/12/31 01:17:07;;;;;;;102.07;96.67;;;13.70;99.90;;;;;;4977879;28;20186;-82
2021/12/31 01:19:45;;;;;;;103.27;97.70;;;13.80;99.90;;;;;;4998136;28;20219;-82
2021/12/31 01:22:32;;;;;;;103.47;98.23;;;13.80;99.90;;;;;;4995157;28;20732;-80
2021/12/31 01:24:58;;;;;;;103.73;98.30;;;13.80;99.90;;;;;;5007667;28;20228;-81
2021/12/31 01:27:24;;;;;;;102.47;97.37;;;13.80;99.90;;;;;;5006327;28;20218;-81
2021/12/31 01:29:50;;;;;;;101.30;96.13;;;13.80;99.90;;;;;;4991875;28;20198;-82
2021/12/31 01:32:16;;;;;;;99.73;94.57;;;13.80;99.90;;;;;;5006663;28;20559;-81
2021/12/31 01:34:42;;;;;;;98.73;93.53;;;13.90;99.90;;;;;;4998214;28;20563;-81
2021/12/31 01:37:09;;;;;;;101.63;96.07;;;13.90;99.90;;;;;;5008420;28;20225;-82
2021/12/31 01:39:35;;;;;;;101.40;96.10;;;13.90;99.90;;;;;;5008695;28;20712;-80
2021/12/31 01:42:06;;;;;;;101.77;96.43;;;13.90;99.90;;;;;;5027582;28;20248;-81
2021/12/31 01:45:14;;;;;;;98.40;93.37;;;13.90;99.90;;;;;;4992237;28;20350;-81
2021/12/31 01:47:22;;;;;;;100.70;95.30;;;13.90;99.90;;;;;;5017553;28;20202;-81
2021/12/31 01:49:58;;;;;;;98.13;93.03;;;13.90;99.90;;;;;;4991567;28;20293;-80
2021/12/31 01:52:24;;;;;;;99.10;93.87;;;13.90;99.90;;;;;;4995005;28;20555;-82
2021/12/31 01:54:51;;;;;;;100.97;95.57;;;13.90;99.90;;;;;;5026618;28;20282;-81
2021/12/31 01:57:18;;;;;;;99.10;94.00;;;13.90;99.90;;;;;;4991049;28;20640;-82
2021/12/31 01:59:44;;;;;;;98.30;92.87;;;13.90;99.90;;;;;;4989256;28;20252;-81
2021/12/31 02:02:10;;;;;;;101.20;95.40;;;13.90;99.90;;;;;;5006049;28;20242;-80
2021/12/31 02:04:38;;;;;;;99.20;93.97;;;13.90;99.90;;;;;;5021882;28;20227;-80
2021/12/31 02:07:05;;;;;;;99.13;93.63;;;13.90;99.90;;;;;;4990890;28;20195;-80
2021/12/31 02:09:35;;;;;;;100.40;95.23;;;13.90;99.90;;;;;;4990656;28;20280;-81
2021/12/31 02:12:01;;;;;;;99.80;94.90;;;13.80;99.90;;;;;;4989398;28;20445;-80
2021/12/31 02:14:28;;;;;;;100.87;95.70;;;13.80;99.90;;;;;;5024310;28;20191;-79
2021/12/31 02:16:54;;;;;;;100.27;95.17;;;13.80;99.90;;;;;;5004083;28;20193;-80
2021/12/31 02:19:27;;;;;;;98.80;93.67;;;13.90;99.90;;;;;;5024900;28;20651;-80
2021/12/31 02:21:53;;;;;;;100.63;95.30;;;13.80;99.90;;;;;;5012728;28;20186;-80
2021/12/31 02:24:21;;;;;;;98.40;93.13;;;13.80;99.90;;;;;;5005293;28;20187;-80
2021/12/31 02:26:47;;;;;;;101.10;95.70;;;13.80;99.90;;;;;;5004657;28;20229;-81
2021/12/31 02:29:13;;;;;;;99.30;93.60;;;13.80;99.90;;;;;;5005895;28;20198;-81
2021/12/31 02:31:39;;;;;;;100.00;94.27;;;13.80;99.90;;;;;;5000661;28;20206;-80
2021/12/31 02:34:05;;;;;;;95.87;90.73;;;13.80;99.90;;;;;;5005652;28;20208;-80
2021/12/31 02:36:32;;;;;;;98.63;93.40;;;13.80;99.90;;;;;;5022589;28;20336;-80
2021/12/31 02:38:58;;;;;;;99.43;93.90;;;13.80;99.90;;;;;;4986361;28;20249;-79
2021/12/31 02:41:24;;;;;;;96.80;91.57;;;13.80;99.90;;;;;;4987798;28;20209;-80
2021/12/31 02:43:49;;;;;;;98.73;93.43;;;13.80;99.90;;;;;;4985238;28;20187;-81
2021/12/31 02:46:15;;;;;;;96.23;91.43;;;13.80;99.90;;;;;;5005081;28;20244;-79
2021/12/31 02:48:41;;;;;;;96.20;91.20;;;13.80;99.90;;;;;;4987354;28;20186;-79
2021/12/31 02:51:07;;;;;;;96.07;90.97;;;13.80;99.90;;;;;;4989142;28;20426;-78
2021/12/31 02:53:40;;;;;;;95.40;90.30;;;13.80;99.90;;;;;;5021279;28;20732;-79
2021/12/31 02:56:09;;;;;;;99.60;94.27;;;13.80;99.90;;;;;;5020279;28;20219;-80
2021/12/31 02:58:35;;;;;;;97.67;92.43;;;13.80;99.90;;;;;;5003785;28;20691;-80
2021/12/31 03:01:03;;;;;;;98.67;93.57;;;13.80;99.90;;;;;;5006176;28;20186;-80
2021/12/31 03:03:29;;;;;;;96.63;91.30;;;13.80;99.90;;;;;;5004267;28;20242;-81
2021/12/31 03:05:55;;;;;;;95.83;90.87;;;13.80;99.90;;;;;;4986108;28;20210;-80
2021/12/31 03:08:29;;;;;;;93.40;88.87;;;13.80;99.90;;;;;;5003319;28;20268;-79
2021/12/31 03:10:56;;;;;;;95.47;90.60;;;13.80;99.90;;;;;;5003555;28;20827;-79
2021/12/31 03:13:23;;;;;;;94.43;89.83;;;13.90;99.90;;;;;;4986550;28;20202;-80
2021/12/31 03:15:52;;;;;;;94.07;89.17;;;13.90;99.90;;;;;;5002295;28;20205;-80
2021/12/31 03:18:18;;;;;;;92.83;88.07;;;13.80;99.90;;;;;;5004239;28;20211;-80
2021/12/31 03:20:57;;;;;;;90.47;85.87;;;13.90;99.90;;;;;;5004493;28;20206;-81
2021/12/31 03:23:24;;;;;;;92.50;87.60;;;13.90;99.90;;;;;;5010789;28;20321;-80
2021/12/31 03:25:50;;;;;;;93.73;89.10;;;13.80;99.90;;;;;;5003299;28;20210;-79
2021/12/31 03:28:15;;;;;;;90.20;85.60;;;13.80;99.90;;;;;;4986286;28;20203;-80
2021/12/31 03:30:42;;;;;;;91.43;86.60;;;13.90;99.90;;;;;;4993823;28;20190;-81
2021/12/31 03:33:08;;;;;;;90.17;85.43;;;13.80;99.90;;;;;;4985861;28;20226;-80
2021/12/31 03:35:34;;;;;;;87.40;83.00;;;13.90;99.90;;;;;;4977414;28;20248;-80
2021/12/31 03:38:00;;;;;;;87.80;83.03;;;13.80;99.90;;;;;;4985980;28;20419;-81
2021/12/31 03:40:25;;;;;;;86.17;81.67;;;13.90;99.90;;;;;;4992877;28;20228;-79
2021/12/31 03:42:51;;;;;;;86.43;82.23;;;13.80;99.90;;;;;;4970554;28;20218;-80
2021/12/31 03:45:17;;;;;;;82.20;77.97;;;13.90;99.90;;;;;;5009181;28;20218;-81
2021/12/31 03:47:42;;;;;;;83.87;79.63;;;13.80;99.90;;;;;;5006905;28;20183;-80
2021/12/31 03:50:08;;;;;;;81.40;76.90;;;13.80;99.90;;;;;;4990791;28;20191;-79
2021/12/31 03:52:39;;;;;;;83.00;78.80;;;13.80;99.90;;;;;;4990656;28;20209;-79
2021/12/31 03:55:10;;;;;;;78.47;74.47;;;13.80;99.90;;;;;;4992087;28;20186;-80
2021/12/31 03:57:37;;;;;;;83.70;79.30;;;13.80;99.90;;;;;;5025363;28;20211;-79
2021/12/31 04:00:05;;;;;;;81.17;76.93;;;13.80;99.90;;;;;;5004470;28;20554;-80
2021/12/31 04:02:31;;;;;;;80.23;75.60;;;13.80;99.90;;;;;;5010245;28;20233;-80
2021/12/31 04:04:56;;;;;;;79.93;75.67;;;13.80;99.90;;;;;;5002299;28;20215;-80
2021/12/31 04:07:22;;;;;;;79.17;74.83;;;13.90;99.90;;;;;;5002269;28;20207;-79
2021/12/31 04:09:48;;;;;;;79.07;74.90;;;13.80;99.90;;;;;;4977020;28;20207;-80
2021/12/31 04:12:14;;;;;;;78.90;74.90;;;13.80;99.90;;;;;;5003011;28;20207;-79
2021/12/31 04:14:40;;;;;;;80.17;76.00;;;13.80;99.90;;;;;;4986501;28;20675;-80
2021/12/31 04:17:06;;;;;;;79.43;75.23;;;13.80;99.90;;;;;;4986062;28;20183;-80
2021/12/31 04:19:31;;;;;;;77.00;73.00;;;13.80;99.90;;;;;;4986944;28;20668;-79
2021/12/31 04:21:58;;;;;;;77.30;73.23;;;13.80;99.90;;;;;;5004188;28;20183;-80
2021/12/31 04:25:06;;;;;;;76.53;72.47;;;13.80;99.90;;;;;;5004781;28;20202;-80
2021/12/31 04:27:12;;;;;;;79.70;75.63;;;13.80;99.90;;;;;;5010783;28;20254;-80
2021/12/31 04:29:39;;;;;;;78.80;74.60;;;13.80;99.90;;;;;;4986491;28;20700;-79
2021/12/31 04:32:05;;;;;;;78.13;74.23;;;13.80;99.90;;;;;;5004656;28;20656;-80
2021/12/31 04:34:32;;;;;;;76.17;71.97;;;13.80;99.90;;;;;;5003446;28;20198;-79
2021/12/31 04:36:57;;;;;;;76.30;72.40;;;13.80;99.90;;;;;;4990103;28;20191;-79
2021/12/31 04:39:23;;;;;;;75.87;71.97;;;13.80;99.90;;;;;;5003691;28;20559;-79
2021/12/31 04:41:49;;;;;;;75.47;71.40;;;13.80;99.90;;;;;;5003283;28;20673;-79
2021/12/31 04:44:15;;;;;;;76.17;72.10;;;13.80;99.90;;;;;;5001281;28;20198;-79
2021/12/31 04:46:40;;;;;;;75.37;71.40;;;13.80;99.90;;;;;;4985335;28;20613;-80
2021/12/31 04:49:06;;;;;;;74.63;70.50;;;13.80;99.90;;;;;;4985993;28;20277;-80
2021/12/31 04:51:35;;;;;;;73.77;69.77;;;13.80;99.90;;;;;;5002505;28;20210;-79
2021/12/31 04:54:01;;;;;;;77.17;73.27;;;13.80;99.90;;;;;;5002909;28;20202;-80
2021/12/31 04:56:27;;;;;;;79.00;74.70;;;13.80;99.90;;;;;;4982998;28;20222;-81
2021/12/31 04:58:53;;;;;;;75.67;71.63;;;13.70;99.90;;;;;;5002301;28;20206;-80
2021/12/31 05:01:21;;;;;;;78.37;74.47;;;13.70;99.90;;;;;;4988006;28;20195;-80
2021/12/31 05:03:48;;;;;;;77.97;74.03;;;13.60;99.90;;;;;;4983204;28;20208;-81
2021/12/31 05:06:15;;;;;;;78.13;74.33;;;13.60;99.90;;;;;;4983328;28;20216;-80
2021/12/31 05:08:41;;;;;;;77.70;73.90;;;13.50;99.90;;;;;;4980811;28;20192;-80
2021/12/31 05:11:07;;;;;;;78.93;74.93;;;13.40;99.90;;;;;;4998381;28;20642;-80
2021/12/31 05:13:33;;;;;;;80.93;76.63;;;13.40;99.90;;;;;;4982284;28;20243;-79
2021/12/31 05:16:03;;;;;;;77.87;73.77;;;13.40;99.90;;;;;;4983564;28;20799;-80
2021/12/31 05:18:29;;;;;;;82.53;78.33;;;13.40;99.90;;;;;;4983545;28;20211;-79
2021/12/31 05:20:55;;;;;;;81.97;77.77;;;13.30;99.90;;;;;;4985093;28;20200;-79
2021/12/31 05:23:20;;;;;;;82.23;77.97;;;13.30;99.90;;;;;;4964578;28;20200;-79
2021/12/31 05:25:46;;;;;;;81.33;77.13;;;13.30;99.90;;;;;;4980284;28;20231;-81
2021/12/31 05:28:11;;;;;;;82.53;78.07;;;13.20;99.90;;;;;;4999196;28;20261;-79
2021/12/31 05:30:37;;;;;;;81.73;77.33;;;13.20;99.90;;;;;;4983781;28;20199;-79
2021/12/31 05:33:03;;;;;;;80.27;75.97;;;13.20;99.90;;;;;;4983793;28;20191;-80
2021/12/31 05:35:29;;;;;;;82.50;78.07;;;13.20;99.90;;;;;;4998827;28;20207;-80
2021/12/31 05:37:54;;;;;;;83.37;78.83;;;13.20;99.90;;;;;;4967824;28;20289;-79
2021/12/31 05:40:20;;;;;;;78.73;74.53;;;13.10;99.90;;;;;;4974841;28;20195;-80
2021/12/31 05:42:46;;;;;;;80.70;76.53;;;13.10;99.90;;;;;;5000717;28;20309;-79
2021/12/31 05:45:12;;;;;;;85.73;81.10;;;13.10;99.90;;;;;;4999061;28;20724;-80
2021/12/31 05:47:38;;;;;;;81.77;77.60;;;13.10;99.90;;;;;;4983903;28;20198;-80
2021/12/31 05:50:07;;;;;;;84.20;79.87;;;13.10;99.90;;;;;;4982056;28;20195;-80
2021/12/31 05:52:34;;;;;;;81.87;77.60;;;13.10;99.90;;;;;;4981125;28;20246;-81
2021/12/31 05:54:59;;;;;;;81.17;76.97;;;13.00;99.90;;;;;;4988151;28;20754;-80
2021/12/31 05:57:25;;;;;;;81.53;77.53;;;13.00;99.90;;;;;;4981772;28;20349;-79
2021/12/31 05:59:51;;;;;;;83.47;78.97;;;13.00;99.90;;;;;;4984666;28;20203;-80
2021/12/31 06:02:17;;;;;;;82.57;78.20;;;13.00;99.90;;;;;;4984445;28;20231;-81
2021/12/31 06:04:42;;;;;;;75.27;71.17;;;12.90;99.90;;;;;;4986329;28;20683;-80
2021/12/31 06:07:08;;;;;;;77.23;72.83;;;12.90;99.90;;;;;;4984233;28;20300;-81
2021/12/31 06:09:34;;;;;;;74.57;70.57;;;12.90;99.90;;;;;;4970271;28;20218;-81
2021/12/31 06:12:00;;;;;;;77.17;73.07;;;12.90;99.90;;;;;;4999763;28;20295;-80
2021/12/31 06:14:26;;;;;;;76.50;72.60;;;12.90;99.90;;;;;;4968585;28;20270;-79
2021/12/31 06:16:52;;;;;;;74.03;70.13;;;12.90;99.90;;;;;;5001837;28;20749;-80
2021/12/31 06:19:18;;;;;;;76.87;72.70;;;12.90;99.90;;;;;;4969721;28;20781;-78
2021/12/31 06:21:46;;;;;;;75.03;70.93;;;12.90;99.90;;;;;;5002111;28;20197;-80
2021/12/31 06:24:11;;;;;;;78.40;74.07;;;12.90;99.90;;;;;;5000706;28;20197;-80
2021/12/31 06:26:37;;;;;;;79.60;75.30;;;12.80;99.90;;;;;;4984834;28;20827;-79
2021/12/31 06:29:04;;;;;;;78.87;74.80;;;12.90;99.90;;;;;;5000476;28;20192;-81
2021/12/31 06:31:30;;;;;;;77.40;73.30;;;12.80;99.90;;;;;;4999586;28;20193;-81
2021/12/31 06:33:56;;;;;;;77.00;72.63;;;12.80;99.90;;;;;;4998194;28;20197;-80
2021/12/31 06:36:22;;;;;;;75.63;71.80;;;12.80;99.90;;;;;;5016578;28;20657;-80
2021/12/31 06:38:50;;;;;;;73.40;69.67;;;12.80;99.90;;;;;;5002908;28;20198;-79
2021/12/31 06:41:16;;;;;;;75.70;71.70;;;12.70;99.90;;;;;;5001193;28;20638;-80
2021/12/31 06:43:43;;;;;;;76.20;72.20;;;12.70;99.90;;;;;;4984290;28;20313;-80
2021/12/31 06:46:09;;;;;;;75.60;71.33;;;12.70;99.90;;;;;;4983510;28;20218;-80
2021/12/31 06:48:34;;;;;;;75.30;71.50;;;12.70;99.90;;;;;;4983742;28;20223;-80
2021/12/31 06:51:00;;;;;;;76.67;72.77;;;12.70;99.90;;;;;;4982004;28;20651;-80
2021/12/31 06:53:26;;;;;;;75.13;71.23;;;12.70;99.90;;;;;;4999482;28;20202;-80
2021/12/31 06:55:51;;;;;;;75.93;71.67;;;12.70;99.90;;;;;;5001256;28;20202;-80
2021/12/31 06:58:17;;;;;;;74.27;70.07;;;12.70;99.90;;;;;;4999497;28;20573;-81
2021/12/31 07:00:43;;;;;;;77.10;72.90;;;12.70;99.90;;;;;;4983373;28;20194;-80
2021/12/31 07:03:11;;;;;;;76.03;72.20;;;12.70;99.90;;;;;;4984392;28;20312;-80
2021/12/31 07:05:40;;;;;;;77.83;73.50;;;12.70;99.90;;;;;;5017386;28;20205;-80
2021/12/31 07:08:06;;;;;;;78.33;74.33;;;12.70;99.90;;;;;;5000120;28;20239;-80
2021/12/31 07:10:33;;;;;;;78.20;74.00;;;12.70;99.90;;;;;;4999300;28;20201;-79
2021/12/31 07:13:00;;;;;;;75.97;71.97;;;12.70;99.90;;;;;;4980956;28;20216;-79
2021/12/31 07:15:26;;;;;;;78.80;74.27;;;12.70;99.90;;;;;;5007256;28;20485;-79
2021/12/31 07:17:52;;;;;;;77.60;73.23;;;12.70;99.90;;;;;;4985934;28;20212;-78
2021/12/31 07:20:19;;;;;;;75.33;71.23;;;12.70;99.90;;;;;;5000516;28;20864;-81
2021/12/31 07:22:44;;;;;;;77.30;73.10;;;12.70;99.90;;;;;;4985014;28;20240;-80
2021/12/31 07:25:10;;;;;;;75.17;71.07;;;12.70;99.90;;;;;;4983701;28;20221;-81
2021/12/31 07:27:36;;;;;;;76.60;71.97;;;12.70;99.90;;;;;;5002872;28;20221;-81
2021/12/31 07:30:02;;;;;;;79.10;74.90;;;12.60;99.90;;;;;;4986149;28;20186;-80
2021/12/31 07:32:28;;;;;;;76.60;72.23;;;12.60;99.90;;;;;;5002049;28;20195;-79
2021/12/31 07:34:54;;;;;;;76.30;72.30;;;12.60;99.90;;;;;;5002691;28;20189;-80
2021/12/31 07:37:19;;;;;;;74.57;70.47;;;12.60;99.90;;;;;;4985755;28;20303;-81
2021/12/31 07:39:48;;;;;;;76.60;72.47;;;12.60;99.90;;;;;;4999512;28;20191;-79
2021/12/31 07:42:14;;;;;;;74.93;71.23;;;12.60;99.90;;;;;;4984232;28;20293;-79
2021/12/31 07:44:40;;;;;;;77.03;72.73;;;12.60;99.90;;;;;;4998446;28;20202;-80
2021/12/31 07:47:06;;;;;;;74.17;70.27;;;12.60;99.90;;;;;;4998071;28;20200;-81
2021/12/31 07:49:32;;;;;;;75.50;71.10;;;12.70;99.90;;;;;;4999219;28;20265;-80
2021/12/31 07:51:58;;;;;;;74.57;70.77;;;12.60;99.90;;;;;;4984343;28;20194;-80
2021/12/31 07:54:23;;;;;;;74.20;69.87;;;12.60;99.90;;;;;;4999623;28;20197;-80
2021/12/31 07:56:49;;;;;;;73.70;69.93;;;12.60;99.90;;;;;;5000015;28;20245;-80
2021/12/31 07:59:15;;;;;;;74.30;70.13;;;12.60;99.90;;;;;;4984712;28;20202;-80
2021/12/31 08:01:41;;;;;;;72.73;68.90;;;12.60;99.90;;;;;;4969273;28;21836;-80
2021/12/31 08:04:07;;;;;;;71.43;67.60;;;12.70;99.90;;;;;;4987099;28;20197;-80
2021/12/31 08:06:32;;;;;;;72.10;68.30;;;12.70;99.90;;;;;;4984280;28;20559;-80
2021/12/31 08:08:58;;;;;;;70.17;66.57;;;12.70;99.90;;;;;;5001552;28;20707;-80
2021/12/31 08:11:24;;;;;;;70.03;66.37;;;12.70;99.90;;;;;;5001555;28;20193;-78
2021/12/31 08:13:49;;;;;;;71.53;67.53;;;12.60;99.90;;;;;;4991483;28;20309;-79
2021/12/31 08:16:15;;;;;;;69.10;65.50;;;12.60;99.90;;;;;;4985333;28;20197;-82
2021/12/31 08:18:41;;;;;;;69.23;65.40;;;12.70;99.90;;;;;;4992769;28;20612;-80
2021/12/31 08:21:07;;;;;;;67.97;64.40;;;12.70;99.90;;;;;;4987888;28;20682;-79
2021/12/31 08:23:32;;;;;;;66.30;62.90;;;12.70;99.90;;;;;;5004577;28;20190;-80
2021/12/31 08:26:01;;;;;;;64.53;60.80;;;12.70;99.90;;;;;;4986511;28;20224;-80
2021/12/31 08:28:27;;;;;;;67.13;63.53;;;12.80;99.90;;;;;;5002858;28;20282;-81
2021/12/31 08:30:52;;;;;;;67.03;63.53;;;13.00;99.90;;;;;;4989288;28;20217;-81
2021/12/31 08:33:18;;;;;;;67.87;64.43;;;13.10;99.90;;;;;;5004742;28;20197;-81
2021/12/31 08:35:44;;;;;;;64.07;60.77;;;13.00;99.90;;;;;;5005495;28;20763;-81
2021/12/31 08:38:10;;;;;;;67.27;62.43;;;13.00;99.90;;;;;;4991112;28;20288;-80
2021/12/31 08:40:36;;;;;;;66.33;62.43;;;12.90;99.90;;;;;;5013938;28;20622;-81
2021/12/31 08:43:02;;;;;;;65.37;61.60;;;12.90;99.90;;;;;;4989624;28;20214;-80
2021/12/31 08:45:29;;;;;;;62.70;59.20;;;12.90;99.90;;;;;;4990414;28;20217;-80
2021/12/31 08:47:57;;;;;;;62.00;58.70;;;12.80;99.90;;;;;;4993015;28;20200;-81
2021/12/31 08:50:23;;;;;;;60.80;57.60;;;12.80;99.90;;;;;;4988874;28;20267;-80
2021/12/31 08:52:49;;;;;;;61.27;57.80;;;12.80;99.90;;;;;;4998675;28;20256;-80
2021/12/31 08:55:14;;;;;;;58.83;55.43;;;12.80;99.90;;;;;;5004798;28;20196;-80
2021/12/31 08:57:41;;;;;;;59.47;56.10;;;12.80;99.90;;;;;;4990827;28;20327;-80
2021/12/31 09:00:07;;;;;;;59.53;56.27;;;12.80;99.90;;;;;;4974999;28;20240;-79
2021/12/31 09:02:35;;;;;;;58.50;55.50;;;12.80;99.90;;;;;;4987322;28;20674;-80
2021/12/31 09:05:01;;;;;;;57.27;54.47;;;12.80;99.90;;;;;;4987809;28;20237;-81
2021/12/31 09:07:27;;;;;;;59.27;55.87;;;12.90;99.90;;;;;;5003335;28;20221;-80
2021/12/31 09:09:53;;;;;;;57.97;54.77;;;12.90;99.90;;;;;;4987470;28;20638;-80
2021/12/31 09:12:18;;;;;;;58.10;54.90;;;13.00;99.90;;;;;;4987106;28;20211;-80
2021/12/31 09:14:44;;;;;;;56.63;53.43;;;13.00;99.90;;;;;;4986066;28;20194;-81
2021/12/31 09:17:10;;;;;;;57.30;54.07;;;13.00;99.90;;;;;;4989277;28;20690;-79
2021/12/31 09:19:36;;;;;;;53.70;50.90;;;13.00;99.90;;;;;;5002494;28;20774;-79
2021/12/31 09:22:04;;;;;;;54.83;51.97;;;13.00;99.90;;;;;;5004085;28;20202;-81
2021/12/31 09:24:30;;;;;;;55.17;52.13;;;12.90;99.90;;;;;;4989285;28;20214;-80
2021/12/31 09:26:56;;;;;;;53.10;50.30;;;12.90;99.90;;;;;;5006069;28;20305;-80
2021/12/31 09:29:23;;;;;;;53.63;50.73;;;12.90;99.90;;;;;;4987410;28;20223;-79
2021/12/31 09:31:50;;;;;;;54.10;51.10;;;12.90;99.90;;;;;;4995241;28;20197;-80
2021/12/31 09:34:16;;;;;;;54.47;51.53;;;12.90;99.90;;;;;;4993090;28;20686;-79
2021/12/31 09:36:41;;;;;;;53.00;50.20;;;12.90;99.90;;;;;;5003293;28;20198;-81
2021/12/31 09:39:07;;;;;;;55.73;52.83;;;12.90;99.90;;;;;;5001735;28;20211;-80
2021/12/31 09:41:33;;;;;;;57.47;54.57;;;12.90;99.90;;;;;;4969110;28;20618;-80
2021/12/31 09:43:58;;;;;;;56.53;53.47;;;12.90;99.90;;;;;;5002481;28;20195;-80
2021/12/31 09:46:24;;;;;;;56.53;53.53;;;12.90;99.90;;;;;;4991410;28;20209;-81
2021/12/31 09:48:50;;;;;;;56.67;53.60;;;12.90;99.90;;;;;;4986598;28;20660;-79
2021/12/31 09:51:16;;;;;;;53.97;51.07;;;12.90;99.90;;;;;;4987032;28;20194;-79
2021/12/31 09:53:43;;;;;;;54.50;51.40;;;12.80;99.90;;;;;;4988842;28;20186;-80
2021/12/31 09:56:09;;;;;;;51.53;48.73;;;12.90;99.90;;;;;;5003596;28;20352;-78
2021/12/31 09:58:36;;;;;;;54.27;51.07;;;12.90;99.90;;;;;;4984253;28;20234;-79
2021/12/31 10:01:03;;;;;;;53.13;50.27;;;12.90;99.90;;;;;;5002225;28;20194;-80
2021/12/31 10:03:31;;;;;;;53.37;50.57;;;12.90;99.90;;;;;;5000921;28;20372;-79
2021/12/31 10:06:01;;;;;;;52.87;49.83;;;13.00;99.90;;;;;;4986286;28;20227;-80
2021/12/31 10:08:29;;;;;;;55.20;52.23;;;13.00;99.90;;;;;;4985229;28;20243;-79
2021/12/31 10:11:03;;;;;;;53.93;50.77;;;13.00;99.90;;;;;;5002596;28;20194;-81
2021/12/31 10:13:29;;;;;;;51.90;49.00;;;13.00;99.90;;;;;;5018713;28;20210;-80
2021/12/31 10:15:56;;;;;;;49.73;47.00;;;12.90;99.90;;;;;;4985599;28;20250;-79
2021/12/31 10:18:35;;;;;;;50.80;47.83;;;12.90;99.90;;;;;;5003216;28;20652;-80
2021/12/31 10:21:02;;;;;;;51.27;48.37;;;12.90;99.90;;;;;;5017482;28;20282;-80
2021/12/31 10:23:28;;;;;;;50.40;47.70;;;12.90;99.90;;;;;;5001228;28;20221;-80
2021/12/31 10:26:15;;;;;;;51.03;48.30;;;12.90;99.90;;;;;;5003643;28;20653;-79
2021/12/31 10:28:58;;;;;;;51.57;48.67;;;13.00;99.90;;;;;;5000838;28;21186;-81
2021/12/31 10:31:24;;;;;;;50.60;47.67;;;13.00;99.90;;;;;;5003620;28;20180;-80
2021/12/31 10:33:51;;;;;;;48.80;46.03;;;13.00;99.90;;;;;;5002250;28;20201;-79
2021/12/31 10:36:37;;;;;;;47.10;44.60;;;13.10;99.90;;;;;;4999655;28;20195;-80
2021/12/31 10:39:24;;;;;;;46.30;43.30;;;13.10;99.90;;;;;;5001422;28;20212;-82
2021/12/31 10:42:11;;;;;;;49.40;46.60;;;13.20;99.90;;;;;;5018321;28;20301;-81
2021/12/31 10:44:52;;;;;;;48.17;45.63;;;13.30;99.90;;;;;;5002407;28;20224;-81
2021/12/31 10:47:33;;;;;;;47.53;44.83;;;13.30;99.90;;;;;;5003191;28;20555;-81
2021/12/31 10:50:02;;;;;;;48.97;45.90;;;13.30;99.90;;;;;;5002832;28;20186;-80
2021/12/31 10:53:07;;;;;;;45.60;42.83;;;13.30;99.90;;;;;;5002155;28;20633;-80
2021/12/31 10:55:34;;;;;;;44.03;41.30;;;13.30;99.90;;;;;;5001377;28;20194;-81
2021/12/31 10:58:04;;;;;;;45.00;42.40;;;13.40;99.90;;;;;;5000327;28;20313;-81
2021/12/31 11:00:33;;;;;;;41.53;38.73;;;13.40;99.90;;;;;;4999019;28;20198;-80
2021/12/31 11:03:00;;;;;;;41.50;39.20;;;13.50;99.90;;;;;;5010619;28;20265;-80
2021/12/31 11:05:26;;;;;;;38.90;36.37;;;13.60;99.90;;;;;;5020817;28;20712;-80
2021/12/31 11:07:53;;;;;;;35.17;33.13;;;13.50;99.90;;;;;;4987614;28;20245;-80
2021/12/31 11:10:25;;;;;;;34.97;32.80;;;13.50;99.90;;;;;;5005587;28;20678;-79
2021/12/31 11:12:52;;;;;;;34.07;31.77;;;13.40;99.90;;;;;;5019259;28;20202;-80
2021/12/31 11:15:18;;;;;;;37.03;34.83;;;13.40;99.90;;;;;;4977093;28;20221;-79
2021/12/31 11:17:45;;;;;;;40.13;37.63;;;13.30;99.90;;;;;;5022898;28;20195;-79
2021/12/31 11:20:13;;;;;;;43.00;40.70;;;13.30;99.90;;;;;;4988680;28;20244;-81
2021/12/31 11:22:39;;;;;;;45.70;43.00;;;13.20;99.90;;;;;;5021521;28;20288;-80
2021/12/31 11:25:27;;;;;;;45.50;42.70;;;13.10;99.90;;;;;;4989268;28;20248;-80
2021/12/31 11:27:55;;;;;;;45.77;43.07;;;13.10;99.90;;;;;;5021496;28;20189;-79
2021/12/31 11:30:39;;;;;;;44.70;41.97;;;13.00;99.90;;;;;;5026480;28;20229;-81
2021/12/31 11:33:08;;;;;;;44.80;42.27;;;13.00;99.90;;;;;;5005828;28;20223;-82
2021/12/31 11:36:05;;;;;;;44.33;41.53;;;13.00;99.90;;;;;;5003891;28;20189;-79
2021/12/31 11:38:31;;;;;;;41.43;39.20;;;13.10;99.90;;;;;;5021350;28;20209;-81
2021/12/31 11:41:08;;;;;;;43.83;40.77;;;13.20;99.90;;;;;;5020024;28;20575;-79
2021/12/31 11:43:39;;;;;;;41.93;39.13;;;13.20;99.90;;;;;;5006731;28;20232;-80
2021/12/31 11:46:11;;;;;;;41.03;38.50;;;13.30;99.90;;;;;;4989960;28;20235;-79
2021/12/31 11:48:48;;;;;;;39.83;37.33;;;13.50;99.90;;;;;;5022695;28;20186;-81
2021/12/31 11:51:28;;;;;;;40.77;38.07;;;13.60;99.90;;;;;;5020620;28;20394;-80
2021/12/31 11:54:00;;;;;;;40.40;38.10;;;13.70;99.90;;;;;;5021591;28;20186;-80
2021/12/31 11:56:38;;;;;;;39.93;37.37;;;13.60;99.90;;;;;;5020288;28;20999;-80
2021/12/31 11:59:07;;;;;;;36.53;34.47;;;13.60;99.90;;;;;;5020948;28;20217;-82
2021/12/31 12:01:52;;;;;;;33.87;31.50;;;13.60;99.90;;;;;;5020620;28;20224;-80
2021/12/31 12:04:25;;;;;;;31.97;29.80;;;13.60;99.90;;;;;;5022245;28;20234;-81
2021/12/31 12:07:09;;;;;;;31.27;29.03;;;13.80;99.90;;;;;;5007462;28;20535;-80
2021/12/31 12:09:38;;;;;;;30.73;28.60;;;13.80;99.90;;;;;;5013587;28;20238;-81
2021/12/31 12:12:08;;;;;;;30.23;28.10;;;13.80;99.90;;;;;;5024843;28;20297;-80
2021/12/31 12:14:47;;;;;;;29.83;27.87;;;13.90;99.90;;;;;;5021491;28;20187;-80
2021/12/31 12:17:17;;;;;;;28.77;26.97;;;13.80;99.90;;;;;;5021641;28;20190;-81
2021/12/31 12:19:46;;;;;;;28.27;26.47;;;13.80;99.90;;;;;;5023255;28;20186;-80
2021/12/31 12:22:33;;;;;;;28.67;26.67;;;13.70;99.90;;;;;;5022343;28;20581;-81
2021/12/31 12:25:01;;;;;;;27.63;25.83;;;13.70;99.90;;;;;;5023664;28;20198;-81
2021/12/31 12:27:27;;;;;;;26.60;24.70;;;13.60;99.90;;;;;;5010988;28;20212;-78
2021/12/31 12:29:56;;;;;;;26.17;24.37;;;13.70;99.90;;;;;;5007789;28;20182;-79